createdAt,value
2018-12-07T15:56:41.400Z,996.52
2018-12-07T15:57:41.311Z,996.53
2018-12-07T15:58:41.367Z,996.50
2018-12-07T15:59:41.552Z,996.51
2018-12-07T16:00:41.605Z,996.45
2018-12-07T16:01:41.701Z,996.46
2018-12-07T16:02:41.812Z,996.45
2018-12-07T16:03:41.895Z,996.44
2018-12-07T16:04:41.810Z,996.47
2018-12-07T16:05:42.025Z,996.37
2018-12-07T16:06:42.080Z,996.39
2018-12-07T16:07:41.969Z,996.40
2018-12-07T16:08:41.971Z,996.32
2018-12-07T16:09:42.033Z,996.32
2018-12-07T16:10:48.837Z,996.36
2018-12-07T16:11:42.386Z,996.31
2018-12-07T16:12:42.199Z,996.30
2018-12-07T16:13:42.267Z,996.24
2018-12-07T16:14:42.410Z,996.26
2018-12-07T16:15:42.433Z,996.20
2018-12-07T16:16:42.687Z,996.23
2018-12-07T16:17:42.657Z,996.27
2018-12-07T16:18:42.691Z,996.27
2018-12-07T16:19:42.891Z,996.21
2018-12-07T16:20:42.911Z,996.25
2018-12-07T16:21:42.936Z,996.26
2018-12-07T16:22:43.112Z,996.24
2018-12-07T16:23:42.941Z,996.22
2018-12-07T16:24:42.945Z,996.25
2018-12-07T16:25:43.005Z,996.21
2018-12-07T16:26:43.336Z,996.19
2018-12-07T16:27:43.133Z,996.24
2018-12-07T16:28:43.232Z,996.14
2018-12-07T16:29:43.336Z,996.15
2018-12-07T16:30:43.327Z,996.11
2018-12-07T16:31:43.613Z,996.06
2018-12-07T16:32:43.454Z,996.03
2018-12-07T16:33:43.571Z,995.98
2018-12-07T16:34:43.602Z,995.97
2018-12-07T16:35:43.673Z,996.00
2018-12-07T16:36:43.842Z,995.93
2018-12-07T16:37:43.876Z,995.88
2018-12-07T16:38:43.845Z,995.87
2018-12-07T16:39:44.092Z,995.88
2018-12-07T16:40:44.079Z,995.84
2018-12-07T16:41:44.078Z,995.86
2018-12-07T16:42:44.073Z,995.84
2018-12-07T16:43:44.140Z,995.76
2018-12-07T16:44:44.262Z,995.73
2018-12-07T16:45:44.466Z,995.70
2018-12-07T16:46:44.786Z,995.73
2018-12-07T16:47:44.467Z,995.71
2018-12-07T16:48:44.603Z,995.67
2018-12-07T16:49:44.501Z,995.58
2018-12-07T16:50:44.649Z,995.65
2018-12-07T16:51:44.635Z,995.56
2018-12-07T16:52:44.876Z,995.60
2018-12-07T16:53:44.812Z,995.53
2018-12-07T16:54:44.875Z,995.51
2018-12-07T16:55:44.922Z,995.53
2018-12-07T16:56:45.204Z,995.57
2018-12-07T16:57:45.258Z,995.54
2018-12-07T16:58:45.099Z,995.50
2018-12-07T16:59:45.138Z,995.45
2018-12-07T17:00:45.506Z,995.44
2018-12-07T17:01:45.537Z,995.49
2018-12-07T17:02:45.396Z,995.43
2018-12-07T17:03:45.374Z,995.44
2018-12-07T17:04:45.502Z,995.47
2018-12-07T17:05:45.498Z,995.39
2018-12-07T17:06:45.870Z,995.40
2018-12-07T17:07:45.630Z,995.37
2018-12-07T17:08:45.832Z,995.33
2018-12-07T17:09:45.747Z,995.30
2018-12-07T17:10:45.902Z,995.22
2018-12-07T17:11:45.942Z,995.24
2018-12-07T17:12:46.042Z,995.22
2018-12-07T17:13:45.998Z,995.22
2018-12-07T17:14:46.113Z,995.22
2018-12-07T17:15:46.439Z,995.25
2018-12-07T17:16:46.431Z,995.32
2018-12-07T17:17:46.247Z,995.25
2018-12-07T17:18:46.637Z,995.21
2018-12-07T17:19:46.610Z,995.23
2018-12-07T17:20:46.595Z,995.21
2018-12-07T17:21:46.757Z,995.09
2018-12-07T17:22:46.712Z,995.07
2018-12-07T17:23:46.661Z,995.08
2018-12-07T17:24:46.777Z,995.06
2018-12-07T17:25:47.074Z,994.98
2018-12-07T17:26:46.935Z,994.90
2018-12-07T17:27:46.988Z,995.00
2018-12-07T17:28:46.966Z,995.03
2018-12-07T17:29:47.051Z,995.04
2018-12-07T17:30:47.056Z,995.03
2018-12-07T17:31:47.164Z,995.19
2018-12-07T17:32:47.462Z,995.05
2018-12-07T17:33:47.355Z,995.04
2018-12-07T17:34:47.440Z,995.17
2018-12-07T17:35:47.402Z,995.22
2018-12-07T17:36:47.577Z,995.38
2018-12-07T17:37:47.550Z,995.45
2018-12-07T17:38:47.817Z,995.55
2018-12-07T17:39:47.642Z,995.71
2018-12-07T17:40:47.704Z,995.75
2018-12-07T17:41:47.777Z,995.79
2018-12-07T17:42:47.876Z,995.87
2018-12-07T17:43:47.986Z,995.84
2018-12-07T17:44:48.012Z,995.84
2018-12-07T17:45:48.308Z,995.91
2018-12-07T17:46:48.192Z,995.92
2018-12-07T17:47:48.359Z,996.02
2018-12-07T17:48:48.388Z,995.99
2018-12-07T17:49:48.389Z,996.10
2018-12-07T17:50:48.335Z,996.15
2018-12-07T17:51:48.392Z,996.03
2018-12-07T17:52:48.569Z,996.14
2018-12-07T17:53:48.489Z,996.18
2018-12-07T17:54:48.615Z,996.16
2018-12-07T17:55:48.724Z,996.24
2018-12-07T17:56:48.916Z,996.19
2018-12-07T17:57:48.798Z,996.15
2018-12-07T17:58:48.802Z,996.26
2018-12-07T17:59:48.868Z,996.29
2018-12-07T18:00:48.989Z,996.32
2018-12-07T18:01:48.993Z,996.33
2018-12-07T18:02:49.060Z,996.40
2018-12-07T18:03:49.109Z,996.38
2018-12-07T18:04:49.173Z,996.41
2018-12-07T18:05:49.256Z,996.41
2018-12-07T18:06:49.311Z,996.44
2018-12-07T18:07:49.747Z,996.47
2018-12-07T18:08:49.433Z,996.45
2018-12-07T18:09:49.646Z,996.47
2018-12-07T18:10:49.713Z,996.53
2018-12-07T18:11:49.605Z,996.45
2018-12-07T18:12:49.748Z,996.46
2018-12-07T18:13:49.940Z,996.52
2018-12-07T18:14:49.841Z,996.59
2018-12-07T18:15:49.854Z,996.58
2018-12-07T18:16:49.984Z,996.70
2018-12-07T18:17:49.988Z,996.68
2018-12-07T18:18:50.047Z,996.69
2018-12-07T18:19:50.181Z,996.84
2018-12-07T18:20:50.315Z,996.95
2018-12-07T18:21:50.247Z,997.01
2018-12-07T18:22:50.489Z,997.08
2018-12-07T18:23:50.552Z,997.09
2018-12-07T18:24:50.415Z,997.13
2018-12-07T18:25:50.713Z,997.11
2018-12-07T18:26:50.540Z,997.18
2018-12-07T18:27:50.616Z,997.24
2018-12-07T18:28:50.662Z,997.23
2018-12-07T18:29:50.744Z,997.28
2018-12-07T18:30:50.958Z,997.23
2018-12-07T18:31:50.922Z,997.32
2018-12-07T18:32:51.173Z,997.31
2018-12-07T18:33:51.198Z,997.34
2018-12-07T18:34:51.035Z,997.36
2018-12-07T18:35:51.250Z,997.42
2018-12-07T18:36:51.235Z,997.38
2018-12-07T18:37:51.262Z,997.41
2018-12-07T18:38:51.725Z,997.48
2018-12-07T18:39:51.568Z,997.54
2018-12-07T18:40:51.564Z,997.62
2018-12-07T18:41:51.493Z,997.72
2018-12-07T18:42:51.568Z,997.75
2018-12-07T18:43:51.646Z,997.78
2018-12-07T18:44:51.751Z,997.80
2018-12-07T18:45:51.744Z,997.84
2018-12-07T18:46:51.815Z,997.87
2018-12-07T18:47:52.050Z,998.00
2018-12-07T18:48:51.895Z,998.07
2018-12-07T18:49:51.959Z,998.10
2018-12-07T18:50:52.015Z,998.13
2018-12-07T18:51:52.105Z,998.17
2018-12-07T18:52:52.183Z,998.20
2018-12-07T18:53:52.548Z,998.29
2018-12-07T18:54:52.428Z,998.27
2018-12-07T18:55:52.558Z,998.35
2018-12-07T18:56:52.634Z,998.43
2018-12-07T18:57:52.564Z,998.48
2018-12-07T18:58:52.539Z,998.58
2018-12-07T18:59:52.821Z,998.61
2018-12-07T19:00:52.894Z,998.75
2018-12-07T19:01:52.824Z,998.64
2018-12-07T19:02:52.888Z,998.77
2018-12-07T19:03:53.023Z,998.73
2018-12-07T19:04:52.947Z,998.74
2018-12-07T19:05:53.080Z,998.74
2018-12-07T19:06:53.025Z,998.61
2018-12-07T19:07:53.124Z,998.69
2018-12-07T19:08:53.208Z,998.79
2018-12-07T19:09:53.200Z,998.73
2018-12-07T19:10:53.406Z,998.77
2018-12-07T19:11:53.329Z,998.91
2018-12-07T19:12:53.462Z,998.96
2018-12-07T19:13:53.432Z,998.93
2018-12-07T19:14:53.505Z,999.01
2018-12-07T19:15:53.556Z,999.02
2018-12-07T19:16:53.826Z,999.05
2018-12-07T19:17:53.747Z,999.18
2018-12-07T19:18:53.843Z,999.14
2018-12-07T19:19:53.801Z,999.16
2018-12-07T19:20:53.913Z,999.20
2018-12-07T19:21:54.116Z,999.20
2018-12-07T19:22:54.093Z,999.20
2018-12-07T19:23:54.041Z,999.23
2018-12-07T19:24:54.277Z,999.24
2018-12-07T19:25:54.447Z,999.24
2018-12-07T19:26:54.451Z,999.25
2018-12-07T19:27:54.401Z,999.30
2018-12-07T19:28:54.377Z,999.35
2018-12-07T19:29:54.408Z,999.38
2018-12-07T19:30:54.620Z,999.41
2018-12-07T19:31:54.602Z,999.43
2018-12-07T19:32:54.704Z,999.42
2018-12-07T19:33:54.977Z,999.43
2018-12-07T19:34:54.903Z,999.46
2018-12-07T19:35:54.790Z,999.42
2018-12-07T19:36:54.973Z,999.46
2018-12-07T19:37:55.179Z,999.46
2018-12-07T19:38:55.079Z,999.50
2018-12-07T19:39:55.223Z,999.52
2018-12-07T19:40:55.321Z,999.54
2018-12-07T19:41:55.146Z,999.53
2018-12-07T19:42:55.253Z,999.54
2018-12-07T19:43:55.266Z,999.62
2018-12-07T19:44:55.553Z,999.65
2018-12-07T19:45:55.599Z,999.66
2018-12-07T19:46:55.837Z,999.63
2018-12-07T19:47:55.785Z,999.70
2018-12-07T19:48:55.643Z,999.74
2018-12-07T19:49:55.908Z,999.82
2018-12-07T19:50:55.881Z,999.82
2018-12-07T19:51:55.762Z,999.88
2018-12-07T19:52:56.128Z,999.87
2018-12-07T19:53:56.025Z,999.87
2018-12-07T19:54:56.076Z,999.88
2018-12-07T19:55:56.209Z,999.88
2018-12-07T19:56:56.140Z,999.90
2018-12-07T19:57:56.302Z,999.93
2018-12-07T19:58:56.190Z,999.87
2018-12-07T19:59:56.355Z,999.95
2018-12-07T20:00:56.354Z,999.95
2018-12-07T20:01:56.475Z,1000.04
2018-12-07T20:02:56.500Z,1000.06
2018-12-07T20:03:56.760Z,1000.13
2018-12-07T20:04:56.765Z,1000.07
2018-12-07T20:05:56.788Z,1000.08
2018-12-07T20:06:56.685Z,1000.09
2018-12-07T20:07:56.890Z,1000.10
2018-12-07T20:08:56.796Z,1000.12
2018-12-07T20:09:57.067Z,1000.15
2018-12-07T20:10:56.919Z,1000.12
2018-12-07T20:11:56.987Z,1000.17
2018-12-07T20:12:57.128Z,1000.21
2018-12-07T20:13:58.030Z,1000.21
2018-12-07T20:14:57.163Z,1000.21
2018-12-07T20:15:57.223Z,1000.19
2018-12-07T20:16:57.686Z,1000.21
2018-12-07T20:17:57.571Z,1000.26
2018-12-07T20:18:57.412Z,1000.29
2018-12-07T20:19:57.586Z,1000.42
2018-12-07T20:20:57.662Z,1000.45
2018-12-07T20:21:57.628Z,1000.44
2018-12-07T20:22:57.659Z,1000.42
2018-12-07T20:23:57.756Z,1000.42
2018-12-07T20:24:57.776Z,1000.41
2018-12-07T20:25:57.972Z,1000.50
2018-12-07T20:26:57.896Z,1000.52
2018-12-07T20:27:58.003Z,1000.51
2018-12-07T20:28:58.024Z,1000.52
2018-12-07T20:29:58.152Z,1000.59
2018-12-07T20:30:58.179Z,1000.59
2018-12-07T20:31:58.257Z,1000.62
2018-12-07T20:32:58.595Z,1000.63
2018-12-07T20:33:58.385Z,1000.63
2018-12-07T20:34:58.388Z,1000.65
2018-12-07T20:35:58.724Z,1000.68
2018-12-07T20:36:58.639Z,1000.73
2018-12-07T20:37:58.753Z,1000.76
2018-12-07T20:38:58.766Z,1000.84
2018-12-07T20:39:58.786Z,1000.84
2018-12-07T20:40:58.969Z,1000.84
2018-12-07T20:41:58.816Z,1000.84
2018-12-07T20:42:58.978Z,1000.87
2018-12-07T20:43:59.029Z,1000.81
2018-12-07T20:44:59.067Z,1000.99
2018-12-07T20:45:59.299Z,1000.90
2018-12-07T20:46:59.200Z,1000.90
2018-12-07T20:47:59.269Z,1000.89
2018-12-07T20:48:59.417Z,1000.98
2018-12-07T20:49:59.305Z,1000.96
2018-12-07T20:50:59.417Z,1000.97
2018-12-07T20:51:59.620Z,1000.96
2018-12-07T20:52:59.547Z,1000.98
2018-12-07T20:53:59.582Z,1001.02
2018-12-07T20:54:59.946Z,1001.03
2018-12-07T20:55:59.732Z,1001.13
2018-12-07T20:56:59.811Z,1001.13
2018-12-07T20:57:59.892Z,1001.14
2018-12-07T20:58:59.868Z,1001.18
2018-12-07T20:59:59.902Z,1001.18
2018-12-07T21:01:00.160Z,1001.25
2018-12-07T21:02:00.260Z,1001.25
2018-12-07T21:03:00.220Z,1001.31
2018-12-07T21:04:00.226Z,1001.30
2018-12-07T21:05:00.206Z,1001.29
2018-12-07T21:06:00.479Z,1001.38
2018-12-07T21:07:00.403Z,1001.38
2018-12-07T21:08:00.703Z,1001.43
2018-12-07T21:09:00.511Z,1001.50
2018-12-07T21:10:00.529Z,1001.48
2018-12-07T21:11:00.792Z,1001.51
2018-12-07T21:12:00.630Z,1001.52
2018-12-07T21:13:00.880Z,1001.51
2018-12-07T21:14:00.762Z,1001.48
2018-12-07T21:15:00.879Z,1001.47
2018-12-07T21:16:00.874Z,1001.46
2018-12-07T21:17:01.095Z,1001.47
2018-12-07T21:18:01.023Z,1001.49
2018-12-07T21:19:01.343Z,1001.53
2018-12-07T21:20:01.369Z,1001.52
2018-12-07T21:21:01.249Z,1001.54
2018-12-07T21:22:01.398Z,1001.56
2018-12-07T21:23:01.298Z,1001.60
2018-12-07T21:24:01.535Z,1001.57
2018-12-07T21:25:01.551Z,1001.58
2018-12-07T21:26:01.483Z,1001.66
2018-12-07T21:27:01.617Z,1001.61
2018-12-07T21:28:01.603Z,1001.56
2018-12-07T21:29:01.737Z,1001.59
2018-12-07T21:30:01.753Z,1001.61
2018-12-07T21:31:02.005Z,1001.63
2018-12-07T21:32:01.998Z,1001.70
2018-12-07T21:33:01.931Z,1001.67
2018-12-07T21:34:01.979Z,1001.69
2018-12-07T21:35:02.201Z,1001.74
2018-12-07T21:36:02.124Z,1001.81
2018-12-07T21:37:02.198Z,1001.84
2018-12-07T21:38:02.215Z,1001.84
2018-12-07T21:39:02.271Z,1001.82
2018-12-07T21:40:02.559Z,1001.91
2018-12-07T21:41:02.661Z,1001.89
2018-12-07T21:42:02.456Z,1001.96
2018-12-07T21:43:02.682Z,1002.08
2018-12-07T21:44:02.572Z,1002.13
2018-12-07T21:45:02.818Z,1002.26
2018-12-07T21:46:02.733Z,1002.31
2018-12-07T21:47:02.813Z,1002.44
2018-12-07T21:48:02.816Z,1002.40
2018-12-07T21:49:03.127Z,1002.26
2018-12-07T21:50:03.074Z,1002.08
2018-12-07T21:51:03.004Z,1002.04
2018-12-07T21:52:03.099Z,1002.11
2018-12-07T21:53:03.162Z,1002.09
2018-12-07T21:54:03.213Z,1002.14
2018-12-07T21:55:03.513Z,1002.14
2018-12-07T21:56:03.330Z,1002.20
2018-12-07T21:57:03.435Z,1002.20
2018-12-07T21:58:03.684Z,1002.24
2018-12-07T21:59:03.533Z,1002.34
2018-12-07T22:00:03.593Z,1002.29
2018-12-07T22:01:03.613Z,1002.28
2018-12-07T22:02:03.698Z,1002.28
2018-12-07T22:03:03.952Z,1002.28
2018-12-07T22:04:03.948Z,1002.31
2018-12-07T22:05:03.861Z,1002.30
2018-12-07T22:06:04.063Z,1002.32
2018-12-07T22:07:04.051Z,1002.35
2018-12-07T22:08:04.045Z,1002.41
2018-12-07T22:09:04.269Z,1002.40
2018-12-07T22:10:04.348Z,1002.44
2018-12-07T22:11:04.460Z,1002.45
2018-12-07T22:12:04.346Z,1002.50
2018-12-07T22:13:04.647Z,1002.51
2018-12-07T22:14:04.385Z,1002.55
2018-12-07T22:15:04.583Z,1002.51
2018-12-07T22:16:04.513Z,1002.49
2018-12-07T22:17:04.573Z,1002.52
2018-12-07T22:18:04.988Z,1002.51
2018-12-07T22:19:04.685Z,1002.51
2018-12-07T22:20:04.745Z,1002.47
2018-12-07T22:21:05.100Z,1002.53
2018-12-07T22:22:04.875Z,1002.52
2018-12-07T22:23:05.161Z,1002.56
2018-12-07T22:24:05.244Z,1002.58
2018-12-07T22:25:05.045Z,1002.54
2018-12-07T22:26:05.201Z,1002.63
2018-12-07T22:27:05.170Z,1002.64
2018-12-07T22:28:05.316Z,1002.65
2018-12-07T22:29:05.345Z,1002.73
2018-12-07T22:30:05.400Z,1002.75
2018-12-07T22:31:05.682Z,1002.75
2018-12-07T22:32:05.532Z,1002.75
2018-12-07T22:33:05.809Z,1002.77
2018-12-07T22:34:05.699Z,1002.74
2018-12-07T22:35:05.650Z,1002.72
2018-12-07T22:36:06.027Z,1002.76
2018-12-07T22:37:05.873Z,1002.81
2018-12-07T22:38:05.856Z,1002.78
2018-12-07T22:39:05.891Z,1002.83
2018-12-07T22:40:06.356Z,1002.85
2018-12-07T22:41:06.098Z,1002.87
2018-12-07T22:42:06.259Z,1002.88
2018-12-07T22:43:06.150Z,1002.92
2018-12-07T22:44:06.191Z,1002.91
2018-12-07T22:45:06.450Z,1002.85
2018-12-07T22:46:06.407Z,1002.87
2018-12-07T22:47:06.397Z,1002.88
2018-12-07T22:48:06.575Z,1002.90
2018-12-07T22:49:06.501Z,1002.84
2018-12-07T22:50:06.555Z,1002.89
2018-12-07T22:51:06.623Z,1002.85
2018-12-07T22:52:06.683Z,1002.90
2018-12-07T22:53:06.735Z,1002.87
2018-12-07T22:54:06.798Z,1002.89
2018-12-07T22:55:06.855Z,1002.91
2018-12-07T22:56:06.923Z,1002.83
2018-12-07T22:57:06.995Z,1002.91
2018-12-07T22:58:07.036Z,1002.87
2018-12-07T22:59:07.096Z,1002.88
2018-12-07T23:00:07.183Z,1002.93
2018-12-07T23:01:07.315Z,1002.88
2018-12-07T23:02:07.281Z,1002.95
2018-12-07T23:03:07.336Z,1002.89
2018-12-07T23:04:07.395Z,1002.98
2018-12-07T23:05:07.455Z,1002.97
2018-12-07T23:06:07.596Z,1002.95
2018-12-07T23:07:07.588Z,1003.04
2018-12-07T23:08:07.636Z,1002.91
2018-12-07T23:09:07.700Z,1002.86
2018-12-07T23:10:07.757Z,1002.93
2018-12-07T23:11:07.830Z,1002.89
2018-12-07T23:12:07.896Z,1002.88
2018-12-07T23:13:07.936Z,1002.90
2018-12-07T23:14:08.000Z,1002.85
2018-12-07T23:15:08.060Z,1002.86
2018-12-07T23:16:08.212Z,1002.87
2018-12-07T23:17:08.180Z,1002.83
